createdAt,value
2023-02-15T00:00:12.704Z,8.98
2023-02-15T00:03:03.813Z,10.88
2023-02-15T00:05:32.600Z,10.55
2023-02-15T00:08:00.993Z,10.80
2023-02-15T00:10:29.208Z,9.93
2023-02-15T00:12:58.147Z,10.88
2023-02-15T00:17:56.651Z,10.93
2023-02-15T00:20:24.823Z,10.57
2023-02-15T00:22:52.698Z,9.40
2023-02-15T00:25:20.924Z,11.48
2023-02-15T00:27:48.866Z,10.93
2023-02-15T00:30:17.236Z,10.25
2023-02-15T00:32:45.310Z,11.80
2023-02-15T00:35:14.978Z,11.35
2023-02-15T00:40:11.749Z,9.75
2023-02-15T00:42:39.733Z,10.20
2023-02-15T00:45:08.661Z,10.90
2023-02-15T00:47:36.636Z,10.73
2023-02-15T00:50:05.350Z,11.13
2023-02-15T00:52:34.987Z,11.02
2023-02-15T00:55:03.208Z,10.77
2023-02-15T00:57:31.107Z,10.23
2023-02-15T00:59:59.359Z,10.75
2023-02-15T01:02:27.262Z,10.80
2023-02-15T01:04:55.892Z,10.93
2023-02-15T01:07:23.871Z,10.70
2023-02-15T01:09:53.659Z,11.10
2023-02-15T01:12:21.565Z,10.30
2023-02-15T01:14:49.846Z,9.55
2023-02-15T01:17:17.715Z,9.93
2023-02-15T01:19:46.234Z,10.33
2023-02-15T01:22:14.095Z,10.98
2023-02-15T01:24:43.453Z,10.35
2023-02-15T01:27:12.810Z,11.55
2023-02-15T01:29:41.027Z,12.35
2023-02-15T01:32:09.000Z,11.40
2023-02-15T01:34:37.341Z,11.90
2023-02-15T01:37:05.282Z,12.35
2023-02-15T01:39:36.101Z,12.93
2023-02-15T01:42:04.119Z,13.52
2023-02-15T01:44:51.020Z,14.65
2023-02-15T01:47:20.474Z,13.70
2023-02-15T01:49:49.210Z,12.75
2023-02-15T01:52:19.901Z,13.53
2023-02-15T01:54:49.373Z,12.77
2023-02-15T01:57:20.180Z,14.20
2023-02-15T01:59:53.340Z,12.63
2023-02-15T02:02:25.244Z,12.82
2023-02-15T02:04:54.392Z,13.95
2023-02-15T02:07:24.389Z,13.48
2023-02-15T02:09:52.580Z,13.95
2023-02-15T02:12:21.041Z,13.88
2023-02-15T02:14:51.606Z,12.85
2023-02-15T02:17:22.360Z,12.43
2023-02-15T02:20:17.856Z,12.57
2023-02-15T02:23:03.665Z,13.10
2023-02-15T02:25:55.959Z,12.45
2023-02-15T02:28:35.429Z,11.65
2023-02-15T02:31:18.586Z,11.63
2023-02-15T02:33:56.268Z,12.40
2023-02-15T02:36:27.752Z,12.77
2023-02-15T02:39:03.111Z,12.45
2023-02-15T02:41:35.012Z,11.90
2023-02-15T02:44:06.831Z,11.05
2023-02-15T02:46:37.662Z,11.55
2023-02-15T02:49:07.052Z,12.38
2023-02-15T02:51:35.239Z,11.57
2023-02-15T02:54:06.419Z,11.60
2023-02-15T02:56:38.448Z,13.20
2023-02-15T02:59:08.493Z,11.30
2023-02-15T03:01:39.785Z,12.68
2023-02-15T03:04:10.726Z,11.70
2023-02-15T03:06:42.821Z,12.43
2023-02-15T03:09:15.425Z,11.98
2023-02-15T03:11:45.033Z,12.85
2023-02-15T03:14:13.864Z,12.77
2023-02-15T03:16:42.806Z,12.90
2023-02-15T03:19:14.675Z,13.13
2023-02-15T03:21:50.528Z,13.18
2023-02-15T03:24:22.401Z,12.07
2023-02-15T03:26:52.590Z,12.48
2023-02-15T03:29:21.688Z,12.57
2023-02-15T03:34:19.385Z,12.68
2023-02-15T03:36:48.878Z,13.18
2023-02-15T03:39:20.742Z,13.48
2023-02-15T03:41:51.972Z,13.10
2023-02-15T03:44:22.860Z,13.38
2023-02-15T03:46:54.363Z,11.57
2023-02-15T03:49:26.979Z,12.73
2023-02-15T03:51:56.765Z,13.43
2023-02-15T03:54:48.083Z,11.98
2023-02-15T03:57:36.225Z,13.30
2023-02-15T04:00:22.942Z,13.88
2023-02-15T04:02:56.580Z,12.23
2023-02-15T04:05:26.342Z,10.82
2023-02-15T04:07:54.629Z,14.32
2023-02-15T04:10:40.592Z,13.23
2023-02-15T04:13:08.866Z,12.48
2023-02-15T04:15:54.473Z,13.75
2023-02-15T04:18:38.159Z,12.35
2023-02-15T04:21:25.196Z,10.35
2023-02-15T04:24:10.542Z,11.88
2023-02-15T04:26:38.538Z,11.80
2023-02-15T04:29:06.851Z,12.27
2023-02-15T04:31:34.798Z,11.70
2023-02-15T04:34:03.097Z,11.65
2023-02-15T04:36:32.398Z,11.75
2023-02-15T04:39:00.574Z,12.55
2023-02-15T04:41:28.528Z,12.65
2023-02-15T04:43:57.446Z,11.23
2023-02-15T04:46:25.506Z,11.27
2023-02-15T04:48:54.053Z,12.25
2023-02-15T04:51:22.030Z,11.18
2023-02-15T04:53:53.664Z,12.73
2023-02-15T04:56:21.973Z,11.88
2023-02-15T04:58:50.540Z,11.80
2023-02-15T05:01:21.411Z,12.00
2023-02-15T05:03:49.589Z,11.80
2023-02-15T05:06:17.633Z,11.85
2023-02-15T05:08:45.832Z,12.38
2023-02-15T05:11:15.113Z,12.05
2023-02-15T05:13:43.453Z,11.65
2023-02-15T05:16:11.388Z,11.55
2023-02-15T05:18:39.642Z,11.68
2023-02-15T05:21:07.701Z,12.00
2023-02-15T05:23:35.945Z,12.07
2023-02-15T05:26:21.580Z,12.30
2023-02-15T05:28:51.230Z,12.48
2023-02-15T05:31:20.559Z,12.68
2023-02-15T05:33:49.241Z,12.23
2023-02-15T05:36:17.299Z,12.75
2023-02-15T05:38:45.457Z,12.35
2023-02-15T05:41:13.647Z,13.52
2023-02-15T05:43:42.022Z,13.15
2023-02-15T05:46:11.466Z,10.73
2023-02-15T05:48:39.665Z,13.32
2023-02-15T05:51:08.897Z,13.75
2023-02-15T05:56:05.397Z,12.68
2023-02-15T05:58:34.433Z,13.80
2023-02-15T06:01:09.529Z,14.30
2023-02-15T06:03:39.241Z,14.02
2023-02-15T06:06:07.794Z,14.48
2023-02-15T06:08:36.909Z,15.90
2023-02-15T06:11:06.611Z,14.85
2023-02-15T06:13:37.991Z,13.55
2023-02-15T06:16:07.458Z,13.80
2023-02-15T06:18:35.968Z,14.73
2023-02-15T06:21:05.250Z,14.57
2023-02-15T06:23:33.497Z,13.90
2023-02-15T06:26:01.713Z,13.50
2023-02-15T06:28:30.052Z,14.02
2023-02-15T06:30:58.088Z,15.63
2023-02-15T06:33:26.491Z,15.48
2023-02-15T06:35:54.526Z,15.93
2023-02-15T06:38:24.194Z,15.75
2023-02-15T06:40:52.079Z,15.23
2023-02-15T06:43:20.245Z,15.00
2023-02-15T06:45:48.240Z,13.77
2023-02-15T06:48:16.628Z,13.95
2023-02-15T06:50:44.513Z,13.95
2023-02-15T06:53:12.854Z,14.05
2023-02-15T06:55:42.389Z,14.27
2023-02-15T06:58:10.560Z,16.52
2023-02-15T07:00:38.589Z,15.05
2023-02-15T07:03:06.816Z,15.75
2023-02-15T07:05:35.514Z,15.88
2023-02-15T07:08:04.018Z,16.05
2023-02-15T07:10:32.076Z,15.38
2023-02-15T07:13:01.021Z,15.18
2023-02-15T07:15:28.999Z,13.75
2023-02-15T07:17:57.225Z,12.88
2023-02-15T07:20:25.691Z,14.32
2023-02-15T07:22:54.029Z,13.10
2023-02-15T07:25:22.002Z,12.50
2023-02-15T07:27:50.184Z,11.93
2023-02-15T07:30:20.021Z,13.60
2023-02-15T07:33:04.823Z,12.88
2023-02-15T07:35:33.378Z,12.90
2023-02-15T07:38:01.634Z,12.35
2023-02-15T07:40:29.655Z,12.38
2023-02-15T07:43:00.129Z,11.63
2023-02-15T07:45:29.736Z,12.15
2023-02-15T07:47:58.020Z,12.57
2023-02-15T07:50:26.007Z,12.48
2023-02-15T07:52:54.277Z,11.48
2023-02-15T07:55:22.372Z,13.25
2023-02-15T07:57:51.211Z,12.93
2023-02-15T08:00:21.152Z,11.32
2023-02-15T08:03:11.989Z,11.48
2023-02-15T08:05:41.759Z,12.27
2023-02-15T08:08:30.710Z,11.70
2023-02-15T08:11:20.162Z,11.15
2023-02-15T08:13:54.743Z,11.70
2023-02-15T08:16:24.296Z,11.13
2023-02-15T08:18:54.235Z,12.00
2023-02-15T08:21:24.863Z,10.90
2023-02-15T08:23:53.248Z,11.93
2023-02-15T08:26:21.517Z,12.23
2023-02-15T08:28:50.052Z,12.05
2023-02-15T08:31:18.363Z,12.48
2023-02-15T08:33:47.917Z,10.98
2023-02-15T08:36:18.120Z,12.27
2023-02-15T08:38:46.753Z,11.90
2023-02-15T08:41:15.918Z,12.38
2023-02-15T08:43:45.829Z,12.40
2023-02-15T08:46:14.067Z,11.20
2023-02-15T08:48:42.987Z,12.05
2023-02-15T08:51:13.137Z,11.57
2023-02-15T08:53:43.579Z,12.25
2023-02-15T08:56:11.950Z,13.57
2023-02-15T08:58:40.639Z,12.50
2023-02-15T09:01:12.163Z,12.70
2023-02-15T09:03:41.215Z,12.25
2023-02-15T09:06:09.245Z,12.23
2023-02-15T09:08:37.462Z,12.70
2023-02-15T09:11:11.378Z,11.40
2023-02-15T09:13:39.989Z,11.43
2023-02-15T09:16:09.304Z,13.45
2023-02-15T09:18:39.574Z,11.35
2023-02-15T09:21:08.955Z,11.82
2023-02-15T09:23:37.806Z,12.40
2023-02-15T09:26:08.872Z,11.75
2023-02-15T09:28:38.929Z,11.45
2023-02-15T09:31:08.501Z,10.15
2023-02-15T09:33:37.511Z,10.57
2023-02-15T09:36:05.908Z,10.35
2023-02-15T09:38:34.391Z,11.95
2023-02-15T09:41:09.324Z,10.77
2023-02-15T09:43:41.284Z,9.57
2023-02-15T09:46:16.565Z,10.18
2023-02-15T09:48:46.229Z,11.52
2023-02-15T09:53:50.443Z,10.45
2023-02-15T09:56:21.917Z,11.07
2023-02-15T09:58:56.905Z,11.88
2023-02-15T10:01:31.605Z,8.95
2023-02-15T10:04:07.574Z,11.50
2023-02-15T10:06:43.198Z,11.60
2023-02-15T10:09:27.144Z,12.82
2023-02-15T10:12:02.177Z,12.18
2023-02-15T10:14:38.917Z,12.50
2023-02-15T10:17:13.997Z,11.68
2023-02-15T10:19:46.761Z,10.35
2023-02-15T10:22:23.444Z,11.82
2023-02-15T10:25:13.164Z,11.15
2023-02-15T10:27:44.356Z,13.38
2023-02-15T10:30:15.278Z,12.02
2023-02-15T10:32:48.235Z,12.95
2023-02-15T10:35:22.340Z,12.93
2023-02-15T10:37:55.656Z,12.00
2023-02-15T10:40:27.607Z,12.48
2023-02-15T10:43:10.336Z,11.40
2023-02-15T10:45:46.814Z,13.65
2023-02-15T10:48:22.152Z,13.38
2023-02-15T10:50:51.739Z,13.57
2023-02-15T10:53:27.092Z,11.50
2023-02-15T10:55:59.005Z,13.82
2023-02-15T10:58:34.744Z,13.60
2023-02-15T11:01:09.098Z,14.32
2023-02-15T11:03:42.506Z,14.30
2023-02-15T11:06:13.240Z,13.82
2023-02-15T11:08:43.156Z,14.52
2023-02-15T11:11:13.184Z,14.48
2023-02-15T11:13:44.283Z,13.77
2023-02-15T11:16:18.715Z,14.57
2023-02-15T11:18:50.978Z,14.82
2023-02-15T11:21:23.888Z,13.73
2023-02-15T11:23:53.476Z,15.23
2023-02-15T11:26:24.382Z,14.55
2023-02-15T11:28:56.188Z,14.15
2023-02-15T11:31:27.505Z,15.48
2023-02-15T11:33:58.411Z,14.90
2023-02-15T11:36:28.405Z,14.88
2023-02-15T11:38:59.864Z,14.18
2023-02-15T11:41:30.735Z,15.95
2023-02-15T11:44:02.037Z,13.88
2023-02-15T11:46:31.823Z,14.50
2023-02-15T11:49:00.526Z,14.55
2023-02-15T11:51:30.006Z,14.90
2023-02-15T11:53:58.351Z,13.00
2023-02-15T11:56:27.213Z,13.73
2023-02-15T11:58:57.071Z,14.77
2023-02-15T12:01:26.981Z,15.52
2023-02-15T12:03:58.124Z,12.88
2023-02-15T12:06:27.243Z,12.32
2023-02-15T12:08:58.123Z,12.48
2023-02-15T12:11:30.563Z,13.38
2023-02-15T12:13:59.845Z,12.65
2023-02-15T12:16:29.345Z,13.40
2023-02-15T12:18:59.233Z,12.75
2023-02-15T12:21:28.987Z,12.40
2023-02-15T12:23:59.049Z,14.25
2023-02-15T12:26:28.939Z,13.10
2023-02-15T12:28:59.023Z,16.05
2023-02-15T12:31:29.337Z,13.43
2023-02-15T12:34:00.049Z,13.63
2023-02-15T12:36:33.105Z,15.20
2023-02-15T12:39:05.359Z,14.02
2023-02-15T12:41:33.724Z,14.50
2023-02-15T12:44:06.016Z,13.80
2023-02-15T12:46:38.435Z,15.77
2023-02-15T12:49:20.562Z,15.55
2023-02-15T12:51:50.124Z,13.55
2023-02-15T12:54:23.399Z,14.82
2023-02-15T12:56:52.624Z,12.93
2023-02-15T12:59:23.537Z,12.50
2023-02-15T13:01:54.368Z,13.95
2023-02-15T13:04:27.490Z,13.95
2023-02-15T13:06:58.072Z,13.80
2023-02-15T13:09:30.980Z,15.38
2023-02-15T13:11:59.461Z,15.27
2023-02-15T13:14:31.093Z,13.43
2023-02-15T13:17:01.181Z,13.93
2023-02-15T13:19:33.596Z,15.75
2023-02-15T13:22:04.793Z,14.57
2023-02-15T13:24:35.827Z,13.95
2023-02-15T13:27:14.958Z,14.25
2023-02-15T13:29:46.880Z,12.98
2023-02-15T13:32:23.977Z,13.93
2023-02-15T13:34:55.978Z,13.82
2023-02-15T13:37:29.101Z,15.43
2023-02-15T13:39:58.402Z,13.38
2023-02-15T13:42:29.963Z,14.23
2023-02-15T13:45:08.584Z,14.90
2023-02-15T13:47:42.532Z,15.93
2023-02-15T13:50:18.882Z,14.10
2023-02-15T13:52:50.245Z,13.73
2023-02-15T13:55:32.997Z,14.18
2023-02-15T13:58:11.951Z,14.65
2023-02-15T14:00:42.765Z,16.20
2023-02-15T14:03:30.739Z,15.20
2023-02-15T14:06:13.498Z,14.80
2023-02-15T14:08:48.038Z,15.80
2023-02-15T14:11:21.810Z,14.63
2023-02-15T14:13:55.461Z,15.07
2023-02-15T14:16:28.729Z,15.43
2023-02-15T14:18:59.440Z,15.40
2023-02-15T14:21:31.157Z,15.95
2023-02-15T14:24:09.706Z,16.80
2023-02-15T14:26:42.941Z,16.60
2023-02-15T14:29:18.099Z,18.63
2023-02-15T14:31:48.474Z,17.17
2023-02-15T14:34:20.418Z,17.10
2023-02-15T14:36:48.945Z,19.33
2023-02-15T14:39:42.897Z,19.17
2023-02-15T14:42:14.396Z,20.35
2023-02-15T14:44:44.860Z,20.42
2023-02-15T14:47:17.505Z,19.60
2023-02-15T14:49:45.690Z,19.85
2023-02-15T14:52:14.451Z,18.73
2023-02-15T14:55:00.737Z,19.42
2023-02-15T14:57:34.119Z,20.20
2023-02-15T15:00:07.999Z,18.98
2023-02-15T15:02:44.759Z,17.67
2023-02-15T15:05:16.527Z,19.67
2023-02-15T15:07:46.514Z,19.75
2023-02-15T15:10:33.437Z,19.95
2023-02-15T15:13:22.700Z,20.13
2023-02-15T15:15:56.845Z,16.75
2023-02-15T15:18:39.765Z,19.20
2023-02-15T15:21:09.530Z,19.63
2023-02-15T15:26:20.540Z,19.27
2023-02-15T15:28:57.652Z,17.83
2023-02-15T15:31:29.886Z,18.83
2023-02-15T15:34:25.263Z,20.58
2023-02-15T15:37:28.312Z,19.85
2023-02-15T15:40:21.057Z,18.60
2023-02-15T15:42:54.420Z,19.55
2023-02-15T15:45:36.415Z,20.85
2023-02-15T15:48:13.570Z,20.27
2023-02-15T15:50:42.719Z,21.98
2023-02-15T15:53:15.071Z,21.15
2023-02-15T15:55:43.488Z,19.88
2023-02-15T15:58:16.670Z,20.25
2023-02-15T16:00:46.775Z,20.88
2023-02-15T16:03:18.149Z,24.00
2023-02-15T16:05:46.582Z,20.50
2023-02-15T16:08:15.482Z,22.08
2023-02-15T16:10:43.485Z,22.23
2023-02-15T16:13:15.401Z,21.10
2023-02-15T16:15:50.538Z,24.38
2023-02-15T16:18:21.053Z,22.48
2023-02-15T16:20:52.075Z,22.00
2023-02-15T16:23:28.218Z,23.83
2023-02-15T16:26:01.277Z,24.40
2023-02-15T16:28:30.434Z,24.80
2023-02-15T16:31:06.725Z,24.85
2023-02-15T16:33:39.164Z,24.02
2023-02-15T16:36:11.196Z,25.45
2023-02-15T16:38:54.565Z,27.02
2023-02-15T16:41:24.136Z,26.00
2023-02-15T16:43:53.325Z,23.13
2023-02-15T16:46:26.101Z,25.02
2023-02-15T16:48:56.903Z,26.88
2023-02-15T16:51:28.573Z,26.52
2023-02-15T16:53:58.068Z,27.15
2023-02-15T16:56:27.181Z,28.08
2023-02-15T17:01:26.155Z,29.10
2023-02-15T17:04:13.554Z,27.55
2023-02-15T17:06:41.888Z,28.05
2023-02-15T17:09:19.508Z,29.07
2023-02-15T17:11:47.633Z,29.88
2023-02-15T17:14:21.880Z,28.95
2023-02-15T17:16:52.541Z,29.83
2023-02-15T17:19:22.958Z,29.67
2023-02-15T17:21:52.262Z,29.42
2023-02-15T17:24:27.933Z,30.02
2023-02-15T17:27:00.831Z,29.88
2023-02-15T17:29:34.302Z,30.30
2023-02-15T17:32:06.030Z,30.83
2023-02-15T17:34:58.426Z,32.35
2023-02-15T17:37:28.512Z,30.25
2023-02-15T17:39:58.373Z,31.85
2023-02-15T17:42:26.373Z,31.80
2023-02-15T17:44:54.736Z,32.70
2023-02-15T17:47:27.885Z,31.80
2023-02-15T17:49:56.470Z,32.55
2023-02-15T17:52:25.387Z,33.72
2023-02-15T17:55:11.418Z,34.85
2023-02-15T17:57:39.954Z,37.35
2023-02-15T18:00:26.223Z,34.97
2023-02-15T18:03:13.555Z,32.40
2023-02-15T18:05:59.161Z,31.77
2023-02-15T18:08:45.963Z,31.85
2023-02-15T18:11:31.854Z,31.13
2023-02-15T18:14:01.605Z,30.92
2023-02-15T18:16:33.358Z,33.40
2023-02-15T18:19:04.867Z,32.60
2023-02-15T18:21:34.455Z,29.17
2023-02-15T18:24:02.516Z,35.20
2023-02-15T18:26:30.984Z,30.50
2023-02-15T18:28:58.941Z,29.48
2023-02-15T18:31:27.254Z,32.13
2023-02-15T18:33:56.101Z,30.48
2023-02-15T18:36:29.499Z,32.33
2023-02-15T18:38:57.965Z,32.28
2023-02-15T18:41:26.574Z,32.08
2023-02-15T18:43:55.594Z,33.03
2023-02-15T18:46:24.034Z,32.15
2023-02-15T18:48:51.953Z,31.95
2023-02-15T18:51:21.379Z,32.85
2023-02-15T18:53:51.998Z,31.33
2023-02-15T18:56:21.373Z,33.55
2023-02-15T18:58:49.932Z,32.95
2023-02-15T19:01:19.541Z,33.42
2023-02-15T19:03:48.101Z,31.70
2023-02-15T19:06:17.441Z,31.50
2023-02-15T19:08:47.441Z,32.33
2023-02-15T19:11:19.419Z,30.83
2023-02-15T19:13:49.042Z,28.02
2023-02-15T19:16:31.166Z,32.67
2023-02-15T19:19:00.035Z,31.42
2023-02-15T19:21:29.046Z,35.40
2023-02-15T19:23:58.443Z,29.20
2023-02-15T19:26:44.365Z,32.38
2023-02-15T19:29:13.856Z,29.58
2023-02-15T19:31:43.866Z,32.03
2023-02-15T19:34:16.400Z,30.20
2023-02-15T19:36:45.476Z,32.15
2023-02-15T19:39:23.304Z,31.15
2023-02-15T19:41:53.149Z,32.30
2023-02-15T19:44:21.486Z,29.70
2023-02-15T19:46:49.817Z,33.40
2023-02-15T19:49:18.291Z,32.42
2023-02-15T19:51:47.957Z,28.08
2023-02-15T19:54:22.381Z,32.20
2023-02-15T19:56:50.757Z,31.85
2023-02-15T19:59:25.169Z,29.75
2023-02-15T20:01:54.531Z,29.30
2023-02-15T20:04:23.185Z,32.13
2023-02-15T20:06:51.943Z,30.75
2023-02-15T20:09:24.378Z,33.50
2023-02-15T20:11:53.391Z,30.88
2023-02-15T20:14:23.718Z,31.20
2023-02-15T20:16:53.389Z,29.85
2023-02-15T20:19:21.942Z,28.92
2023-02-15T20:21:54.621Z,32.83
2023-02-15T20:24:23.995Z,33.40
2023-02-15T20:26:52.836Z,32.35
2023-02-15T20:29:22.642Z,31.23
2023-02-15T20:31:52.855Z,35.17
2023-02-15T20:34:24.474Z,30.73
2023-02-15T20:36:53.083Z,33.70
2023-02-15T20:39:21.126Z,33.80
2023-02-15T20:41:49.288Z,33.90
2023-02-15T20:44:21.742Z,33.78
2023-02-15T20:46:51.055Z,31.83
2023-02-15T20:49:19.239Z,33.97
2023-02-15T20:51:49.235Z,33.83
2023-02-15T20:54:18.585Z,36.58
2023-02-15T20:56:47.281Z,33.17
2023-02-15T20:59:25.376Z,35.88
2023-02-15T21:01:56.901Z,35.95
2023-02-15T21:04:26.774Z,37.15
2023-02-15T21:06:56.821Z,36.10
2023-02-15T21:09:25.016Z,38.92
2023-02-15T21:11:54.129Z,34.55
2023-02-15T21:14:23.302Z,37.65
2023-02-15T21:19:21.289Z,36.50
2023-02-15T21:21:50.663Z,36.95
2023-02-15T21:24:22.348Z,36.03
2023-02-15T21:26:50.584Z,37.65
2023-02-15T21:31:49.961Z,36.88
2023-02-15T21:34:19.680Z,37.22
2023-02-15T21:36:50.699Z,37.53
2023-02-15T21:39:22.091Z,37.25
2023-02-15T21:42:08.958Z,35.42
2023-02-15T21:44:54.639Z,37.08
2023-02-15T21:47:41.027Z,36.92
2023-02-15T21:50:28.023Z,39.10
2023-02-15T21:52:56.855Z,37.78
2023-02-15T21:55:26.509Z,37.88
2023-02-15T21:57:54.676Z,37.03
2023-02-15T22:00:24.182Z,33.83
2023-02-15T22:02:53.798Z,38.40
2023-02-15T22:07:50.434Z,36.88
2023-02-15T22:10:19.534Z,40.45
2023-02-15T22:12:51.750Z,39.72
2023-02-15T22:15:21.040Z,36.33
2023-02-15T22:17:49.447Z,37.95
2023-02-15T22:20:19.024Z,38.92
2023-02-15T22:22:47.637Z,36.92
2023-02-15T22:25:16.362Z,38.90
2023-02-15T22:27:44.818Z,38.30
2023-02-15T22:30:21.434Z,40.80
2023-02-15T22:32:49.798Z,38.80
2023-02-15T22:35:18.576Z,37.72
2023-02-15T22:37:47.227Z,41.90
2023-02-15T22:40:16.239Z,39.30
2023-02-15T22:42:46.266Z,37.90
2023-02-15T22:45:17.461Z,39.80
2023-02-15T22:47:47.626Z,36.30
2023-02-15T22:50:17.583Z,39.70
2023-02-15T22:52:45.940Z,40.80
2023-02-15T22:55:15.298Z,38.40
2023-02-15T22:57:43.757Z,42.03
2023-02-15T23:00:16.138Z,40.40
2023-02-15T23:02:44.713Z,37.50
2023-02-15T23:05:19.763Z,39.17
2023-02-15T23:07:48.514Z,41.25
2023-02-15T23:10:22.260Z,41.25
2023-02-15T23:13:08.808Z,39.47
2023-02-15T23:15:36.832Z,35.85
2023-02-15T23:18:11.916Z,39.13
2023-02-15T23:20:42.039Z,39.65
2023-02-15T23:23:11.708Z,38.75
2023-02-15T23:28:15.238Z,37.00
2023-02-15T23:30:43.195Z,37.78
2023-02-15T23:33:12.996Z,38.42
2023-02-15T23:38:18.666Z,40.80
2023-02-15T23:41:06.282Z,34.03
2023-02-15T23:43:35.016Z,38.60
2023-02-15T23:46:02.969Z,38.30
2023-02-15T23:48:34.576Z,39.08
2023-02-15T23:51:03.187Z,37.70
2023-02-15T23:53:33.434Z,35.75
2023-02-15T23:56:02.070Z,38.17
2023-02-15T23:58:36.025Z,37.95
